sensor_id;sensor_type;location;lat;lon;timestamp;temperature;humidity
26342;DHT22;14054;50.108;8.640;2023-09-19T00:00:17;17.90;99.90
26342;DHT22;14054;50.108;8.640;2023-09-19T00:02:46;17.80;99.90
26342;DHT22;14054;50.108;8.640;2023-09-19T00:05:12;17.80;99.90
26342;DHT22;14054;50.108;8.640;2023-09-19T00:07:38;17.80;99.90
26342;DHT22;14054;50.108;8.640;2023-09-19T00:10:04;17.80;99.90
26342;DHT22;14054;50.108;8.640;2023-09-19T00:12:30;17.80;99.90
26342;DHT22;14054;50.108;8.640;2023-09-19T00:14:55;17.70;99.90
26342;DHT22;14054;50.108;8.640;2023-09-19T00:17:22;17.80;99.90
26342;DHT22;14054;50.108;8.640;2023-09-19T00:19:47;17.70;99.90
26342;DHT22;14054;50.108;8.640;2023-09-19T00:22:16;17.80;99.90
26342;DHT22;14054;50.108;8.640;2023-09-19T00:24:42;17.80;99.90
26342;DHT22;14054;50.108;8.640;2023-09-19T00:27:08;17.70;99.90
26342;DHT22;14054;50.108;8.640;2023-09-19T00:29:33;17.70;99.90
26342;DHT22;14054;50.108;8.640;2023-09-19T00:31:59;17.80;99.90
26342;DHT22;14054;50.108;8.640;2023-09-19T00:34:24;17.80;99.90
26342;DHT22;14054;50.108;8.640;2023-09-19T00:36:51;17.80;99.90
26342;DHT22;14054;50.108;8.640;2023-09-19T00:39:18;17.80;99.90
26342;DHT22;14054;50.108;8.640;2023-09-19T00:41:45;17.80;99.90
26342;DHT22;14054;50.108;8.640;2023-09-19T00:44:11;17.80;99.90
26342;DHT22;14054;50.108;8.640;2023-09-19T00:46:37;17.80;99.90
26342;DHT22;14054;50.108;8.640;2023-09-19T00:49:02;17.80;99.90
26342;DHT22;14054;50.108;8.640;2023-09-19T00:51:28;17.70;99.90
26342;DHT22;14054;50.108;8.640;2023-09-19T00:53:55;17.70;99.90
26342;DHT22;14054;50.108;8.640;2023-09-19T00:56:21;17.70;99.90
26342;DHT22;14054;50.108;8.640;2023-09-19T00:58:47;17.70;99.90
26342;DHT22;14054;50.108;8.640;2023-09-19T01:01:16;17.70;99.90
26342;DHT22;14054;50.108;8.640;2023-09-19T01:03:42;17.70;99.90
26342;DHT22;14054;50.108;8.640;2023-09-19T01:06:08;17.70;99.90
26342;DHT22;14054;50.108;8.640;2023-09-19T01:08:34;17.70;99.90
26342;DHT22;14054;50.108;8.640;2023-09-19T01:11:38;17.70;99.90
26342;DHT22;14054;50.108;8.640;2023-09-19T01:14:37;17.70;99.90
26342;DHT22;14054;50.108;8.640;2023-09-19T01:17:27;17.70;99.90
26342;DHT22;14054;50.108;8.640;2023-09-19T01:20:17;17.70;99.90
26342;DHT22;14054;50.108;8.640;2023-09-19T01:23:00;17.70;99.90
26342;DHT22;14054;50.108;8.640;2023-09-19T01:25:42;17.70;99.90
26342;DHT22;14054;50.108;8.640;2023-09-19T01:28:26;17.70;99.90
26342;DHT22;14054;50.108;8.640;2023-09-19T01:30:57;17.70;99.90
26342;DHT22;14054;50.108;8.640;2023-09-19T01:33:24;17.70;99.90
26342;DHT22;14054;50.108;8.640;2023-09-19T01:35:51;17.70;99.90
26342;DHT22;14054;50.108;8.640;2023-09-19T01:38:19;17.60;99.90
26342;DHT22;14054;50.108;8.640;2023-09-19T01:40:58;17.70;99.90
26342;DHT22;14054;50.108;8.640;2023-09-19T01:43:41;17.60;99.90
26342;DHT22;14054;50.108;8.640;2023-09-19T01:48:48;17.60;99.90
26342;DHT22;14054;50.108;8.640;2023-09-19T01:51:22;17.60;99.90
26342;DHT22;14054;50.108;8.640;2023-09-19T01:54:01;17.60;99.90
26342;DHT22;14054;50.108;8.640;2023-09-19T01:56:40;17.60;99.90
26342;DHT22;14054;50.108;8.640;2023-09-19T01:59:12;17.60;99.90
26342;DHT22;14054;50.108;8.640;2023-09-19T02:01:39;17.50;99.90
26342;DHT22;14054;50.108;8.640;2023-09-19T02:04:06;17.50;99.90
26342;DHT22;14054;50.108;8.640;2023-09-19T02:06:32;17.50;99.90
26342;DHT22;14054;50.108;8.640;2023-09-19T02:08:59;17.40;99.90
26342;DHT22;14054;50.108;8.640;2023-09-19T02:11:25;17.40;99.90
26342;DHT22;14054;50.108;8.640;2023-09-19T02:13:50;17.40;99.90
26342;DHT22;14054;50.108;8.640;2023-09-19T02:16:20;17.40;99.90
26342;DHT22;14054;50.108;8.640;2023-09-19T02:18:47;17.40;99.90
26342;DHT22;14054;50.108;8.640;2023-09-19T02:21:14;17.50;99.90
26342;DHT22;14054;50.108;8.640;2023-09-19T02:23:40;17.40;99.90
26342;DHT22;14054;50.108;8.640;2023-09-19T02:26:06;17.40;99.90
26342;DHT22;14054;50.108;8.640;2023-09-19T02:28:32;17.40;99.90
26342;DHT22;14054;50.108;8.640;2023-09-19T02:30:58;17.20;99.90
26342;DHT22;14054;50.108;8.640;2023-09-19T02:33:24;17.20;99.90
26342;DHT22;14054;50.108;8.640;2023-09-19T02:35:50;17.20;99.90
26342;DHT22;14054;50.108;8.640;2023-09-19T02:38:19;17.20;99.90
26342;DHT22;14054;50.108;8.640;2023-09-19T02:40:50;17.20;99.90
26342;DHT22;14054;50.108;8.640;2023-09-19T02:43:15;17.10;99.90
26342;DHT22;14054;50.108;8.640;2023-09-19T02:45:42;17.10;99.90
26342;DHT22;14054;50.108;8.640;2023-09-19T02:48:08;17.10;99.90
26342;DHT22;14054;50.108;8.640;2023-09-19T02:50:33;17.10;99.90
26342;DHT22;14054;50.108;8.640;2023-09-19T02:52:59;17.10;99.90
26342;DHT22;14054;50.108;8.640;2023-09-19T02:55:25;17.10;99.90
26342;DHT22;14054;50.108;8.640;2023-09-19T02:57:52;17.00;99.90
26342;DHT22;14054;50.108;8.640;2023-09-19T03:00:20;17.00;99.90
26342;DHT22;14054;50.108;8.640;2023-09-19T03:02:56;17.00;99.90
26342;DHT22;14054;50.108;8.640;2023-09-19T03:05:22;17.00;99.90
26342;DHT22;14054;50.108;8.640;2023-09-19T03:07:52;17.00;99.90
26342;DHT22;14054;50.108;8.640;2023-09-19T03:10:18;17.00;99.90
26342;DHT22;14054;50.108;8.640;2023-09-19T03:12:44;17.00;99.90
26342;DHT22;14054;50.108;8.640;2023-09-19T03:15:09;17.00;99.90
26342;DHT22;14054;50.108;8.640;2023-09-19T03:17:35;17.00;99.90
26342;DHT22;14054;50.108;8.640;2023-09-19T03:20:02;17.00;99.90
26342;DHT22;14054;50.108;8.640;2023-09-19T03:22:27;16.90;99.90
26342;DHT22;14054;50.108;8.640;2023-09-19T03:24:53;16.90;99.90
26342;DHT22;14054;50.108;8.640;2023-09-19T03:27:19;16.90;99.90
26342;DHT22;14054;50.108;8.640;2023-09-19T03:29:46;16.90;99.90
26342;DHT22;14054;50.108;8.640;2023-09-19T03:32:11;16.90;99.90
26342;DHT22;14054;50.108;8.640;2023-09-19T03:34:38;16.90;99.90
26342;DHT22;14054;50.108;8.640;2023-09-19T03:37:08;16.90;99.90
26342;DHT22;14054;50.108;8.640;2023-09-19T03:39:34;16.90;99.90
26342;DHT22;14054;50.108;8.640;2023-09-19T03:42:01;16.90;99.90
26342;DHT22;14054;50.108;8.640;2023-09-19T03:44:26;16.90;99.90
26342;DHT22;14054;50.108;8.640;2023-09-19T03:46:52;16.80;99.90
26342;DHT22;14054;50.108;8.640;2023-09-19T03:49:17;16.80;99.90
26342;DHT22;14054;50.108;8.640;2023-09-19T03:51:42;16.80;99.90
26342;DHT22;14054;50.108;8.640;2023-09-19T03:54:08;16.70;99.90
26342;DHT22;14054;50.108;8.640;2023-09-19T03:56:34;16.70;99.90
26342;DHT22;14054;50.108;8.640;2023-09-19T03:58:59;16.70;99.90
26342;DHT22;14054;50.108;8.640;2023-09-19T04:01:25;16.70;99.90
26342;DHT22;14054;50.108;8.640;2023-09-19T04:03:53;16.70;99.90
26342;DHT22;14054;50.108;8.640;2023-09-19T04:06:19;16.70;99.90
26342;DHT22;14054;50.108;8.640;2023-09-19T04:08:44;16.60;99.90
26342;DHT22;14054;50.108;8.640;2023-09-19T04:11:11;16.60;99.90
26342;DHT22;14054;50.108;8.640;2023-09-19T04:13:36;16.70;99.90
26342;DHT22;14054;50.108;8.640;2023-09-19T04:16:02;16.70;99.90
26342;DHT22;14054;50.108;8.640;2023-09-19T04:18:32;16.70;99.90
26342;DHT22;14054;50.108;8.640;2023-09-19T04:20:58;16.80;99.90
26342;DHT22;14054;50.108;8.640;2023-09-19T04:23:25;16.70;99.90
26342;DHT22;14054;50.108;8.640;2023-09-19T04:25:50;16.70;99.90
26342;DHT22;14054;50.108;8.640;2023-09-19T04:28:16;16.80;99.90
26342;DHT22;14054;50.108;8.640;2023-09-19T04:30:42;16.70;99.90
26342;DHT22;14054;50.108;8.640;2023-09-19T04:33:08;16.80;99.90
26342;DHT22;14054;50.108;8.640;2023-09-19T04:35:34;16.80;99.90
26342;DHT22;14054;50.108;8.640;2023-09-19T04:38:00;16.80;99.90
26342;DHT22;14054;50.108;8.640;2023-09-19T04:40:25;16.80;99.90
26342;DHT22;14054;50.108;8.640;2023-09-19T04:42:57;16.80;99.90
26342;DHT22;14054;50.108;8.640;2023-09-19T04:45:23;16.80;99.90
26342;DHT22;14054;50.108;8.640;2023-09-19T04:47:49;16.80;99.90
26342;DHT22;14054;50.108;8.640;2023-09-19T04:50:15;16.80;99.90
26342;DHT22;14054;50.108;8.640;2023-09-19T04:52:42;16.80;99.90
26342;DHT22;14054;50.108;8.640;2023-09-19T04:55:13;16.70;99.90
26342;DHT22;14054;50.108;8.640;2023-09-19T04:57:45;16.80;99.90
26342;DHT22;14054;50.108;8.640;2023-09-19T05:00:13;16.80;99.90
26342;DHT22;14054;50.108;8.640;2023-09-19T05:02:40;16.80;99.90
26342;DHT22;14054;50.108;8.640;2023-09-19T05:05:07;16.70;99.90
26342;DHT22;14054;50.108;8.640;2023-09-19T05:07:33;16.70;99.90
26342;DHT22;14054;50.108;8.640;2023-09-19T05:09:59;16.70;99.90
26342;DHT22;14054;50.108;8.640;2023-09-19T05:12:26;16.70;99.90
26342;DHT22;14054;50.108;8.640;2023-09-19T05:14:52;16.70;99.90
26342;DHT22;14054;50.108;8.640;2023-09-19T05:17:18;16.70;99.90
26342;DHT22;14054;50.108;8.640;2023-09-19T05:19:43;16.70;99.90
26342;DHT22;14054;50.108;8.640;2023-09-19T05:22:09;16.70;99.90
26342;DHT22;14054;50.108;8.640;2023-09-19T05:24:34;16.70;99.90
26342;DHT22;14054;50.108;8.640;2023-09-19T05:27:00;16.70;99.90
26342;DHT22;14054;50.108;8.640;2023-09-19T05:29:26;16.70;99.90
26342;DHT22;14054;50.108;8.640;2023-09-19T05:31:52;16.70;99.90
26342;DHT22;14054;50.108;8.640;2023-09-19T05:34:18;16.70;99.90
26342;DHT22;14054;50.108;8.640;2023-09-19T05:36:44;16.70;99.90
26342;DHT22;14054;50.108;8.640;2023-09-19T05:39:10;16.70;99.90
26342;DHT22;14054;50.108;8.640;2023-09-19T05:41:36;16.80;99.90
26342;DHT22;14054;50.108;8.640;2023-09-19T05:44:02;16.80;99.90
26342;DHT22;14054;50.108;8.640;2023-09-19T05:46:28;16.80;99.90
26342;DHT22;14054;50.108;8.640;2023-09-19T05:48:55;16.80;99.90
26342;DHT22;14054;50.108;8.640;2023-09-19T05:51:22;16.80;99.90
26342;DHT22;14054;50.108;8.640;2023-09-19T05:53:48;16.80;99.90
26342;DHT22;14054;50.108;8.640;2023-09-19T05:56:14;16.80;99.90
26342;DHT22;14054;50.108;8.640;2023-09-19T05:58:40;16.80;99.90
26342;DHT22;14054;50.108;8.640;2023-09-19T06:01:08;16.80;99.90
26342;DHT22;14054;50.108;8.640;2023-09-19T06:03:34;16.80;99.90
26342;DHT22;14054;50.108;8.640;2023-09-19T06:06:01;16.80;99.90
26342;DHT22;14054;50.108;8.640;2023-09-19T06:08:27;16.70;99.90
26342;DHT22;14054;50.108;8.640;2023-09-19T06:10:53;16.80;99.90
26342;DHT22;14054;50.108;8.640;2023-09-19T06:13:19;16.80;99.90
26342;DHT22;14054;50.108;8.640;2023-09-19T06:15:45;16.90;99.90
26342;DHT22;14054;50.108;8.640;2023-09-19T06:18:12;16.80;99.90
26342;DHT22;14054;50.108;8.640;2023-09-19T06:20:47;16.90;99.90
26342;DHT22;14054;50.108;8.640;2023-09-19T06:23:13;16.90;99.90
26342;DHT22;14054;50.108;8.640;2023-09-19T06:25:38;16.90;99.90
26342;DHT22;14054;50.108;8.640;2023-09-19T06:28:04;16.90;99.90
26342;DHT22;14054;50.108;8.640;2023-09-19T06:30:31;17.00;99.90
26342;DHT22;14054;50.108;8.640;2023-09-19T06:32:58;17.00;99.90
26342;DHT22;14054;50.108;8.640;2023-09-19T06:35:24;17.10;99.90
26342;DHT22;14054;50.108;8.640;2023-09-19T06:37:51;17.10;99.90
26342;DHT22;14054;50.108;8.640;2023-09-19T06:40:18;17.20;99.90
26342;DHT22;14054;50.108;8.640;2023-09-19T06:42:51;17.30;99.90
26342;DHT22;14054;50.108;8.640;2023-09-19T06:45:21;17.30;99.90
26342;DHT22;14054;50.108;8.640;2023-09-19T06:47:50;17.30;99.90
26342;DHT22;14054;50.108;8.640;2023-09-19T06:50:17;17.30;99.90
26342;DHT22;14054;50.108;8.640;2023-09-19T06:52:45;17.40;99.90
26342;DHT22;14054;50.108;8.640;2023-09-19T06:55:11;17.40;99.90
26342;DHT22;14054;50.108;8.640;2023-09-19T06:57:41;17.40;99.90
26342;DHT22;14054;50.108;8.640;2023-09-19T07:00:08;17.50;99.90
26342;DHT22;14054;50.108;8.640;2023-09-19T07:02:41;17.50;99.90
26342;DHT22;14054;50.108;8.640;2023-09-19T07:05:07;17.60;99.90
26342;DHT22;14054;50.108;8.640;2023-09-19T07:07:32;17.60;99.90
26342;DHT22;14054;50.108;8.640;2023-09-19T07:10:00;17.50;99.90
26342;DHT22;14054;50.108;8.640;2023-09-19T07:12:26;17.60;99.90
26342;DHT22;14054;50.108;8.640;2023-09-19T07:14:51;17.60;99.90
26342;DHT22;14054;50.108;8.640;2023-09-19T07:17:17;17.60;99.90
26342;DHT22;14054;50.108;8.640;2023-09-19T07:19:44;17.70;99.90
26342;DHT22;14054;50.108;8.640;2023-09-19T07:22:10;17.60;99.90
26342;DHT22;14054;50.108;8.640;2023-09-19T07:24:35;17.80;99.90
26342;DHT22;14054;50.108;8.640;2023-09-19T07:27:03;17.80;99.90
26342;DHT22;14054;50.108;8.640;2023-09-19T07:29:28;18.00;99.90
26342;DHT22;14054;50.108;8.640;2023-09-19T07:31:54;18.00;99.90
26342;DHT22;14054;50.108;8.640;2023-09-19T07:34:19;17.80;99.90
26342;DHT22;14054;50.108;8.640;2023-09-19T07:36:48;17.90;99.90
26342;DHT22;14054;50.108;8.640;2023-09-19T07:39:13;17.90;99.90
26342;DHT22;14054;50.108;8.640;2023-09-19T07:41:39;18.00;99.90
26342;DHT22;14054;50.108;8.640;2023-09-19T07:44:04;18.00;99.90
26342;DHT22;14054;50.108;8.640;2023-09-19T07:46:30;18.10;99.90
26342;DHT22;14054;50.108;8.640;2023-09-19T07:48:57;18.10;99.90
26342;DHT22;14054;50.108;8.640;2023-09-19T07:51:22;18.20;99.90
26342;DHT22;14054;50.108;8.640;2023-09-19T07:53:48;18.30;99.90
26342;DHT22;14054;50.108;8.640;2023-09-19T07:56:13;18.20;99.90
26342;DHT22;14054;50.108;8.640;2023-09-19T07:58:40;18.40;99.90
26342;DHT22;14054;50.108;8.640;2023-09-19T08:01:10;18.40;99.90
26342;DHT22;14054;50.108;8.640;2023-09-19T08:03:36;18.50;99.90
26342;DHT22;14054;50.108;8.640;2023-09-19T08:06:09;18.60;99.90
26342;DHT22;14054;50.108;8.640;2023-09-19T08:08:35;18.60;99.90
26342;DHT22;14054;50.108;8.640;2023-09-19T08:11:04;18.50;99.90
26342;DHT22;14054;50.108;8.640;2023-09-19T08:13:39;18.60;99.90
26342;DHT22;14054;50.108;8.640;2023-09-19T08:16:17;18.50;99.90
26342;DHT22;14054;50.108;8.640;2023-09-19T08:18:48;18.40;99.90
26342;DHT22;14054;50.108;8.640;2023-09-19T08:21:20;18.40;99.90
26342;DHT22;14054;50.108;8.640;2023-09-19T08:23:45;18.50;99.90
26342;DHT22;14054;50.108;8.640;2023-09-19T08:26:11;18.50;99.90
26342;DHT22;14054;50.108;8.640;2023-09-19T08:28:37;18.60;99.90
26342;DHT22;14054;50.108;8.640;2023-09-19T08:31:07;18.50;99.90
26342;DHT22;14054;50.108;8.640;2023-09-19T08:33:34;18.70;99.90
26342;DHT22;14054;50.108;8.640;2023-09-19T08:36:01;18.70;99.90
26342;DHT22;14054;50.108;8.640;2023-09-19T08:38:26;18.70;99.90
26342;DHT22;14054;50.108;8.640;2023-09-19T08:41:00;18.90;99.90
26342;DHT22;14054;50.108;8.640;2023-09-19T08:43:29;18.90;99.90
26342;DHT22;14054;50.108;8.640;2023-09-19T08:46:16;19.10;99.90
26342;DHT22;14054;50.108;8.640;2023-09-19T08:48:50;19.30;99.90
26342;DHT22;14054;50.108;8.640;2023-09-19T08:51:25;19.40;99.90
26342;DHT22;14054;50.108;8.640;2023-09-19T08:53:58;19.50;99.90
26342;DHT22;14054;50.108;8.640;2023-09-19T08:56:29;19.40;99.90
26342;DHT22;14054;50.108;8.640;2023-09-19T08:58:57;19.40;99.90
26342;DHT22;14054;50.108;8.640;2023-09-19T09:01:27;19.60;99.90
26342;DHT22;14054;50.108;8.640;2023-09-19T09:03:54;19.60;99.90
26342;DHT22;14054;50.108;8.640;2023-09-19T09:06:24;19.70;99.90
26342;DHT22;14054;50.108;8.640;2023-09-19T09:08:50;19.70;99.90
26342;DHT22;14054;50.108;8.640;2023-09-19T09:11:17;19.40;99.90
26342;DHT22;14054;50.108;8.640;2023-09-19T09:13:47;19.60;99.90
26342;DHT22;14054;50.108;8.640;2023-09-19T09:16:14;19.80;99.90
26342;DHT22;14054;50.108;8.640;2023-09-19T09:18:44;19.80;99.90
26342;DHT22;14054;50.108;8.640;2023-09-19T09:21:10;20.00;99.90
26342;DHT22;14054;50.108;8.640;2023-09-19T09:23:35;19.80;99.90
26342;DHT22;14054;50.108;8.640;2023-09-19T09:26:01;19.70;99.90
26342;DHT22;14054;50.108;8.640;2023-09-19T09:28:32;19.60;99.90
26342;DHT22;14054;50.108;8.640;2023-09-19T09:30:59;19.70;99.90
26342;DHT22;14054;50.108;8.640;2023-09-19T09:33:27;19.30;99.90
26342;DHT22;14054;50.108;8.640;2023-09-19T09:36:01;19.30;99.90
26342;DHT22;14054;50.108;8.640;2023-09-19T09:38:47;19.30;99.90
26342;DHT22;14054;50.108;8.640;2023-09-19T09:41:15;19.20;99.90
26342;DHT22;14054;50.108;8.640;2023-09-19T09:43:53;19.40;99.90
26342;DHT22;14054;50.108;8.640;2023-09-19T09:46:20;19.50;99.90
26342;DHT22;14054;50.108;8.640;2023-09-19T09:54:16;20.00;99.90
26342;DHT22;14054;50.108;8.640;2023-09-19T09:56:57;20.00;99.90
26342;DHT22;14054;50.108;8.640;2023-09-19T09:59:44;20.00;99.90
26342;DHT22;14054;50.108;8.640;2023-09-19T10:02:18;20.00;99.90
26342;DHT22;14054;50.108;8.640;2023-09-19T10:04:51;20.20;99.90
26342;DHT22;14054;50.108;8.640;2023-09-19T10:07:30;20.40;99.90
26342;DHT22;14054;50.108;8.640;2023-09-19T10:10:03;20.20;99.90
26342;DHT22;14054;50.108;8.640;2023-09-19T10:12:46;20.20;99.90
26342;DHT22;14054;50.108;8.640;2023-09-19T10:15:16;20.50;99.90
26342;DHT22;14054;50.108;8.640;2023-09-19T10:17:44;20.40;99.90
26342;DHT22;14054;50.108;8.640;2023-09-19T10:20:16;20.50;99.90
26342;DHT22;14054;50.108;8.640;2023-09-19T10:22:53;20.20;99.90
26342;DHT22;14054;50.108;8.640;2023-09-19T10:25:27;20.50;99.90
26342;DHT22;14054;50.108;8.640;2023-09-19T10:28:02;20.50;99.90
26342;DHT22;14054;50.108;8.640;2023-09-19T10:30:31;20.80;99.90
26342;DHT22;14054;50.108;8.640;2023-09-19T10:33:02;21.00;99.90
26342;DHT22;14054;50.108;8.640;2023-09-19T10:35:29;21.30;99.90
26342;DHT22;14054;50.108;8.640;2023-09-19T10:37:57;21.50;99.00
26342;DHT22;14054;50.108;8.640;2023-09-19T10:40:25;21.50;98.40
26342;DHT22;14054;50.108;8.640;2023-09-19T10:43:01;21.90;97.80
26342;DHT22;14054;50.108;8.640;2023-09-19T10:45:30;21.80;97.30
26342;DHT22;14054;50.108;8.640;2023-09-19T10:47:57;21.60;97.30
26342;DHT22;14054;50.108;8.640;2023-09-19T10:50:23;21.50;96.90
26342;DHT22;14054;50.108;8.640;2023-09-19T10:52:54;21.40;96.70
26342;DHT22;14054;50.108;8.640;2023-09-19T10:55:31;21.30;96.20
26342;DHT22;14054;50.108;8.640;2023-09-19T10:57:57;21.30;96.60
26342;DHT22;14054;50.108;8.640;2023-09-19T11:03:18;20.90;96.40
26342;DHT22;14054;50.108;8.640;2023-09-19T11:06:04;21.20;96.00
26342;DHT22;14054;50.108;8.640;2023-09-19T11:08:31;20.80;95.00
26342;DHT22;14054;50.108;8.640;2023-09-19T11:30:50;23.50;88.00
26342;DHT22;14054;50.108;8.640;2023-09-19T11:36:14;23.90;86.80
26342;DHT22;14054;50.108;8.640;2023-09-19T11:49:18;24.20;81.70
26342;DHT22;14054;50.108;8.640;2023-09-19T11:51:50;25.00;80.10
26342;DHT22;14054;50.108;8.640;2023-09-19T11:54:20;24.80;78.20
26342;DHT22;14054;50.108;8.640;2023-09-19T11:56:51;23.60;79.70
26342;DHT22;14054;50.108;8.640;2023-09-19T11:59:20;23.70;80.30
26342;DHT22;14054;50.108;8.640;2023-09-19T12:01:54;24.70;77.60
26342;DHT22;14054;50.108;8.640;2023-09-19T12:04:40;24.90;75.40
26342;DHT22;14054;50.108;8.640;2023-09-19T12:07:08;23.60;76.70
26342;DHT22;14054;50.108;8.640;2023-09-19T12:09:50;24.80;76.40
26342;DHT22;14054;50.108;8.640;2023-09-19T12:12:27;25.30;73.60
26342;DHT22;14054;50.108;8.640;2023-09-19T12:14:54;25.40;71.30
26342;DHT22;14054;50.108;8.640;2023-09-19T12:17:20;26.00;69.90
26342;DHT22;14054;50.108;8.640;2023-09-19T12:19:55;26.20;68.20
26342;DHT22;14054;50.108;8.640;2023-09-19T12:22:21;26.20;67.70
26342;DHT22;14054;50.108;8.640;2023-09-19T12:24:47;25.90;66.80
26342;DHT22;14054;50.108;8.640;2023-09-19T12:27:13;25.00;66.20
26342;DHT22;14054;50.108;8.640;2023-09-19T12:29:43;23.70;70.30
26342;DHT22;14054;50.108;8.640;2023-09-19T12:32:09;23.30;73.10
26342;DHT22;14054;50.108;8.640;2023-09-19T12:34:35;23.80;71.60
26342;DHT22;14054;50.108;8.640;2023-09-19T12:37:08;24.30;71.50
26342;DHT22;14054;50.108;8.640;2023-09-19T12:39:53;24.90;69.50
26342;DHT22;14054;50.108;8.640;2023-09-19T12:42:33;24.70;68.90
26342;DHT22;14054;50.108;8.640;2023-09-19T12:45:01;24.10;70.60
26342;DHT22;14054;50.108;8.640;2023-09-19T12:47:27;24.90;69.30
26342;DHT22;14054;50.108;8.640;2023-09-19T12:50:13;25.30;68.10
26342;DHT22;14054;50.108;8.640;2023-09-19T12:55:24;26.90;63.20
26342;DHT22;14054;50.108;8.640;2023-09-19T12:58:13;26.20;61.20
26342;DHT22;14054;50.108;8.640;2023-09-19T13:00:44;25.50;62.80
26342;DHT22;14054;50.108;8.640;2023-09-19T13:03:34;26.00;62.70
26342;DHT22;14054;50.108;8.640;2023-09-19T13:06:01;25.70;62.60
26342;DHT22;14054;50.108;8.640;2023-09-19T13:08:31;25.90;61.40
26342;DHT22;14054;50.108;8.640;2023-09-19T13:11:11;25.70;62.10
26342;DHT22;14054;50.108;8.640;2023-09-19T13:14:13;26.30;59.70
26342;DHT22;14054;50.108;8.640;2023-09-19T13:22:03;27.20;57.90
26342;DHT22;14054;50.108;8.640;2023-09-19T13:24:28;27.60;57.20
26342;DHT22;14054;50.108;8.640;2023-09-19T13:26:55;28.40;56.20
26342;DHT22;14054;50.108;8.640;2023-09-19T13:29:21;27.70;55.90
26342;DHT22;14054;50.108;8.640;2023-09-19T13:31:51;28.50;55.20
26342;DHT22;14054;50.108;8.640;2023-09-19T13:34:18;29.40;53.40
26342;DHT22;14054;50.108;8.640;2023-09-19T13:36:45;30.10;52.10
26342;DHT22;14054;50.108;8.640;2023-09-19T13:39:12;29.70;51.30
26342;DHT22;14054;50.108;8.640;2023-09-19T13:41:38;28.30;52.10
26342;DHT22;14054;50.108;8.640;2023-09-19T13:44:04;27.20;53.20
26342;DHT22;14054;50.108;8.640;2023-09-19T13:46:30;25.70;56.00
26342;DHT22;14054;50.108;8.640;2023-09-19T13:48:59;24.80;58.30
26342;DHT22;14054;50.108;8.640;2023-09-19T13:51:26;24.80;59.40
26342;DHT22;14054;50.108;8.640;2023-09-19T13:53:51;24.80;60.10
26342;DHT22;14054;50.108;8.640;2023-09-19T13:56:17;25.30;59.30
26342;DHT22;14054;50.108;8.640;2023-09-19T13:58:42;25.90;58.40
26342;DHT22;14054;50.108;8.640;2023-09-19T14:01:08;25.50;58.90
26342;DHT22;14054;50.108;8.640;2023-09-19T14:03:41;25.20;59.60
26342;DHT22;14054;50.108;8.640;2023-09-19T14:06:12;25.10;60.30
26342;DHT22;14054;50.108;8.640;2023-09-19T14:08:37;24.80;61.30
26342;DHT22;14054;50.108;8.640;2023-09-19T14:11:07;24.70;61.80
26342;DHT22;14054;50.108;8.640;2023-09-19T14:13:33;24.70;62.00
26342;DHT22;14054;50.108;8.640;2023-09-19T14:16:06;24.50;61.80
26342;DHT22;14054;50.108;8.640;2023-09-19T14:18:34;24.50;61.90
26342;DHT22;14054;50.108;8.640;2023-09-19T14:21:03;24.30;61.30
26342;DHT22;14054;50.108;8.640;2023-09-19T14:23:29;24.10;62.00
26342;DHT22;14054;50.108;8.640;2023-09-19T14:26:01;24.10;62.20
26342;DHT22;14054;50.108;8.640;2023-09-19T14:28:26;23.60;62.60
26342;DHT22;14054;50.108;8.640;2023-09-19T14:30:52;23.50;63.10
26342;DHT22;14054;50.108;8.640;2023-09-19T14:33:17;23.20;63.50
26342;DHT22;14054;50.108;8.640;2023-09-19T14:35:43;23.00;63.10
26342;DHT22;14054;50.108;8.640;2023-09-19T14:38:08;22.90;63.80
26342;DHT22;14054;50.108;8.640;2023-09-19T14:40:34;23.00;63.90
26342;DHT22;14054;50.108;8.640;2023-09-19T14:43:01;22.90;64.70
26342;DHT22;14054;50.108;8.640;2023-09-19T14:45:27;22.90;64.50
26342;DHT22;14054;50.108;8.640;2023-09-19T14:47:53;23.00;65.10
26342;DHT22;14054;50.108;8.640;2023-09-19T14:50:21;22.90;65.70
26342;DHT22;14054;50.108;8.640;2023-09-19T14:52:47;22.70;66.30
26342;DHT22;14054;50.108;8.640;2023-09-19T14:55:14;22.70;66.30
26342;DHT22;14054;50.108;8.640;2023-09-19T14:57:41;22.70;66.60
26342;DHT22;14054;50.108;8.640;2023-09-19T15:00:10;22.50;67.10
26342;DHT22;14054;50.108;8.640;2023-09-19T15:02:38;22.40;67.70
26342;DHT22;14054;50.108;8.640;2023-09-19T15:05:04;22.30;68.50
26342;DHT22;14054;50.108;8.640;2023-09-19T15:07:32;22.10;69.10
26342;DHT22;14054;50.108;8.640;2023-09-19T15:09:57;22.00;69.50
26342;DHT22;14054;50.108;8.640;2023-09-19T15:12:23;21.90;70.30
26342;DHT22;14054;50.108;8.640;2023-09-19T15:14:48;21.90;71.00
26342;DHT22;14054;50.108;8.640;2023-09-19T15:17:14;21.80;71.30
26342;DHT22;14054;50.108;8.640;2023-09-19T15:19:40;21.80;71.90
26342;DHT22;14054;50.108;8.640;2023-09-19T15:22:05;21.80;72.10
26342;DHT22;14054;50.108;8.640;2023-09-19T15:24:31;21.70;72.40
26342;DHT22;14054;50.108;8.640;2023-09-19T15:26:57;21.70;72.60
26342;DHT22;14054;50.108;8.640;2023-09-19T15:29:22;21.70;72.80
26342;DHT22;14054;50.108;8.640;2023-09-19T15:31:48;21.70;73.30
26342;DHT22;14054;50.108;8.640;2023-09-19T15:34:14;21.80;73.40
26342;DHT22;14054;50.108;8.640;2023-09-19T15:36:41;21.80;74.00
26342;DHT22;14054;50.108;8.640;2023-09-19T15:39:07;21.80;74.20
26342;DHT22;14054;50.108;8.640;2023-09-19T15:41:40;21.80;74.50
26342;DHT22;14054;50.108;8.640;2023-09-19T15:44:17;21.70;74.50
26342;DHT22;14054;50.108;8.640;2023-09-19T15:46:44;21.60;74.90
26342;DHT22;14054;50.108;8.640;2023-09-19T15:49:10;21.70;74.90
26342;DHT22;14054;50.108;8.640;2023-09-19T15:51:37;21.70;75.00
26342;DHT22;14054;50.108;8.640;2023-09-19T15:54:08;21.60;75.20
26342;DHT22;14054;50.108;8.640;2023-09-19T15:56:34;21.60;75.10
26342;DHT22;14054;50.108;8.640;2023-09-19T15:59:04;21.60;75.40
26342;DHT22;14054;50.108;8.640;2023-09-19T16:01:29;21.50;75.80
26342;DHT22;14054;50.108;8.640;2023-09-19T16:03:55;21.50;76.30
26342;DHT22;14054;50.108;8.640;2023-09-19T16:06:26;21.50;76.60
26342;DHT22;14054;50.108;8.640;2023-09-19T16:08:54;21.60;77.10
26342;DHT22;14054;50.108;8.640;2023-09-19T16:11:21;21.50;77.30
26342;DHT22;14054;50.108;8.640;2023-09-19T16:13:49;21.40;77.70
26342;DHT22;14054;50.108;8.640;2023-09-19T16:16:15;21.50;78.30
26342;DHT22;14054;50.108;8.640;2023-09-19T16:21:14;21.50;78.90
26342;DHT22;14054;50.108;8.640;2023-09-19T16:23:39;21.40;79.50
26342;DHT22;14054;50.108;8.640;2023-09-19T16:26:07;21.40;79.90
26342;DHT22;14054;50.108;8.640;2023-09-19T16:28:35;21.40;80.50
26342;DHT22;14054;50.108;8.640;2023-09-19T16:31:02;21.40;80.90
26342;DHT22;14054;50.108;8.640;2023-09-19T16:33:29;21.30;81.50